Weather observations for the past three days for
Front Royal-warren County Airport
Imperial (Metric)
Date Time (edt) Wind (mph) Vis. (mi.) Weather Sky Cond. Temperature (ºF) Relative Humidity Wind Chill (°F) Heat Index (°F) Pressure Precipitation (in)
Air Dwpt 6 hour altimeter (in) sea level (mb) 1 hr 3 hr 6 hr
Max. Min.
05 06:35 Calm 10.00 Mostly Cloudy BKN035 67.3 67.1 99% 29.89 0.0
05 06:15 Calm 7.00 Partly Cloudy SCT035 67.1 66.6 98% 29.87 0.0
05 05:35 Calm 10.00 Fair CLR 68.4 67.5 97% 29.87 0.0
05 04:35 S 3 10.00 Fair CLR 68.5 68 98% 29.87 0.0
05 03:55 S 5 10.00 Fair CLR 69.3 68.4 97% 29.88 0.0
05 03:15 S 3 10.00 Fair CLR 69.6 68.5 96% 29.89 0.0
05 02:55 S 5 10.00 Fair CLR 69.8 68.5 96% 29.89 0.0
05 02:35 S 3 10.00 Partly Cloudy SCT100 70 68.9 96% 29.9 0.0
05 02:15 S 5 10.00 Partly Cloudy SCT100 70.3 68.9 95% 29.91 0.0
05 01:55 SW 5 10.00 Partly Cloudy SCT100 70.3 69.3 73.4 70.2 96% 29.92 0.0
05 01:35 Calm 10.00 Mostly Cloudy BKN100 BKN120 70.7 69.8 97% 29.93 0.0
05 01:15 S 5 10.00 Partly Cloudy SCT120 70.3 69.6 98% 29.93 0.0
05 00:55 S 3 10.00 Fair CLR 70.7 69.8 97% 29.94 0.0
05 00:35 S 6 10.00 Fair CLR 70.7 69.8 97% 29.94 0.0
05 00:15 S 6 10.00 Fair CLR 71.1 70 96% 29.94 0.0
04 23:55 S 6 10.00 Fair CLR 71.2 70 96% 29.94 0.0
04 23:35 S 5 10.00 Fair CLR 71.4 70.2 96% 29.95 0.0
04 23:15 S 5 10.00 Fair CLR 71.6 70.5 96% 29.95 0.0
04 22:55 S 5 10.00 Fair CLR 71.6 70.7 97% 29.94 0.0
04 22:35 S 5 10.00 Fair CLR 71.6 70.9 98% 29.94 0.0
04 22:15 S 3 10.00 Fair CLR 72 71.1 97% 29.93 0.0
04 21:55 S 6 10.00 Fair CLR 72 71.1 97% 29.92 0.0
04 21:35 S 6 10.00 Fair CLR 72.1 71.1 96% 29.92 0.0
04 21:15 S 5 10.00 Fair CLR 72.5 70.9 95% 29.91 0.0
04 20:55 Calm 10.00 Fair CLR 72.5 71.1 95% 29.91 0.0
04 20:35 S 5 10.00 Fair CLR 72.7 71.1 95% 29.91 0.0
04 20:15 S 5 10.00 Fair CLR 72.9 71.1 94% 29.91 0.0
04 19:55 S 5 10.00 Fair CLR 73.4 71.1 94.6 71.6 92% 29.91 0.0 0.02
04 19:35 S 6 10.00 Fair CLR 73.6 71.1 92% 29.91 0.0
04 19:15 S 6 10.00 Fair CLR 74.3 70.9 89% 29.91 0.0
04 18:35 S 5 10.00 Fair CLR 75.4 70 83% 76 29.91 0.0
04 18:15 S 7 10.00 Fair CLR 75.6 70.7 85% 76 29.92 0.0
04 17:35 S 5 10.00 Partly Cloudy SCT065 75.2 71.8 89% 75 29.93 0.0
04 17:15 S 6 10.00 Fair CLR 75.7 71.4 87% 76 29.94 0.0
04 16:55 S 3 10.00 Partly Cloudy SCT090 SCT120 76.5 71.6 85% 77 29.95 0.0 0.02
04 16:35 Calm 10.00 Mostly Cloudy SCT100 BKN120 75.2 73.2 94% 74 29.96 0.0
04 15:55 S 3 10.00 Partly Cloudy SCT070 SCT095 SCT120 72.5 71.6 97% 29.94 0.0 0.02
04 15:35 S 3 10.00 Light Rain SCT060 BKN070 BKN100 71.6 70.2 95% 29.94 0.0 0.01
04 15:15 N 18 G 26 10.00 Mostly Cloudy BKN065 BKN080 BKN110 89.1 73 59% 97 29.93 0.0
04 14:55 N 6 10.00 Partly Cloudy SCT055 SCT065 SCT075 92.1 72.1 52% 100 29.89 0.0
04 14:35 NW 5 10.00 Fair CLR 92.3 71.6 51% 100 29.91 0.0
04 14:15 Calm 10.00 Partly Cloudy SCT050 92.3 72.5 53% 101 29.92 0.0
04 13:55 Calm 10.00 Fair CLR 91.8 72.9 54% 100 29.93 0.0 0.01
04 13:35 Calm 10.00 Partly Cloudy SCT050 92.5 73.8 54% 102 29.94 0.0
04 13:15 E 3 10.00 Fair CLR 91 73.6 57% 100 29.95 0.0
04 12:55 Calm 10.00 Fair CLR 89.8 72.5 57% 97 29.95 0.0
04 12:35 Calm 10.00 Fair CLR 89.6 73 58% 98 29.96 0.0
04 12:15 Calm 10.00 Fair CLR 88.7 71.6 57% 95 29.97 0.0
04 11:35 Calm 10.00 Fair CLR 85.5 70.9 62% 91 29.97 0.0 0.01
04 10:55 N 3 10.00 Fair CLR 84 70.9 65% 89 29.97 0.0
04 10:35 Calm 10.00 Fair CLR 82.8 70.5 67% 87 29.98 0.0
04 10:15 Calm 10.00 Fair CLR 0 0 0% 29.98 0.0
04 09:55 Calm 10.00 Fair CLR 0 0 0% 29.98 0.0
04 09:35 Calm 10.00 Fair CLR 0 0 0% 29.98 0.0
04 09:15 Calm 10.00 Fair CLR 0 0 0% 29.98 0.0
04 08:55 Calm 10.00 Fair CLR 0 0 0% 29.99 0.0
04 08:35 Calm 10.00 Fair CLR 0 0 0% 29.99 0.0
04 07:35 Calm 10.00 Fair CLR 0 0 0% 29.98 0.0
04 05:55 S 7 10.00 Fair CLR 0 0 0% 29.95 0.0
04 05:15 S 3 10.00 Fair CLR 0 0 0% 29.94 0.0
04 04:55 S 5 10.00 Fair CLR 0 0 0% 29.94 0.0
04 04:15 S 6 10.00 Fair CLR 0 0 0% 29.94 0.0
04 03:55 S 6 10.00 Fair CLR 0 0 0% 29.94 0.0
04 03:35 S 7 10.00 Fair CLR 0 0 0% 29.94 0.0
04 03:15 S 5 10.00 Fair CLR 0 0 0% 29.95 0.0
04 02:55 S 3 10.00 Fair CLR 0 0 0% 29.94 0.0
04 02:35 S 7 10.00 Fair CLR 0 0 0% 29.94 0.0
04 01:55 S 5 10.00 Fair CLR 0 0 0% 29.95 0.0 0.19
04 01:35 SW 5 10.00 Fair CLR 0 0 0% 29.96 0.0
04 01:15 SW 3 10.00 Fair CLR 0 0 0% 29.96 0.0
04 00:55 S 6 7.00 Rain SCT120 0 0 0% 29.99 0.0 0.09
04 00:15 SE 8 7.00 Light Rain SCT060 SCT080 BKN110 0 0 0% 30.03 0.0 0.04
03 23:55 W 9 G 35 5.00 Heavy Rain SCT041 BKN055 OVC075 0 0 0% 30.06 0.0 0.07
03 23:35 N 8 G 22 10.00 Overcast SCT034 BKN041 OVC047 77.5 66.9 70% 79 30.06 0.0
03 23:15 NW 15 G 24 10.00 Overcast SCT034 BKN042 OVC090 81.1 66.4 61% 83 30.04 0.0
03 22:35 SW 3 10.00 Mostly Cloudy SCT070 SCT090 BKN110 80.1 74.7 84% 85 29.97 0.0
03 22:15 S 3 10.00 Mostly Cloudy SCT060 BKN070 BKN100 0 0 0% 29.98 0.0
03 21:55 S 3 10.00 Partly Cloudy SCT060 SCT070 0 0 0% 29.98 0.0
03 21:35 Calm 10.00 Fair CLR 0 0 0% 29.97 0.0
03 21:15 S 3 10.00 Fair CLR 0 0 0% 29.97 0.0
03 20:35 S 5 10.00 Fair CLR 0 0 0% 29.96 0.0
03 20:15 S 5 10.00 Fair CLR 0 0 0% 29.97 0.0
03 19:35 Calm 10.00 Fair CLR 0 0 0% 29.97 0.0
03 16:35 S 7 10.00 Fair CLR 0 0 0% 29.95 0.0
03 15:55 SW 7 10.00 Fair CLR 0 0 0% 29.97 0.0
03 15:35 S 5 10.00 Fair CLR 0 0 0% 29.98 0.0
03 15:15 S 7 10.00 Fair CLR 89.8 74.7 61% 100 29.99 0.0
03 14:55 SW 3 10.00 Fair CLR 0 0 0% 30 0.0
03 14:35 S 5 10.00 Fair CLR 0 0 0% 30.01 0.0
03 13:35 SW 5 10.00 Partly Cloudy SCT032 SCT049 SCT075 81.9 74.7 79% 88 30.04 0.0
03 13:15 S 3 10.00 Partly Cloudy SCT055 0 0 0% 30.05 0.0
03 12:55 Calm 10.00 Mostly Cloudy SCT023 BKN055 BKN110 0 0 0% 30.07 0.0
03 12:35 Calm 10.00 Mostly Cloudy BKN023 BKN048 80.8 72.9 77% 85 30.08 0.0
03 12:15 Calm 10.00 Mostly Cloudy SCT023 BKN048 BKN065 0 0 0% 30.07 0.0
03 11:55 N 7 10.00 Mostly Cloudy BKN048 BKN065 0 0 0% 30.09 0.0
03 11:35 N 3 10.00 Mostly Cloudy SCT050 BKN065 0 0 0% 30.08 0.0
03 11:15 Calm 10.00 Fair CLR 0 0 0% 30.07 0.0
03 10:55 Calm 10.00 Partly Cloudy SCT050 SCT065 0 0 0% 30.07 0.0
03 10:35 Calm 10.00 Fair CLR 0 0 0% 30.07 0.0
03 10:15 W 5 10.00 Fair CLR 0 0 0% 30.07 0.0
03 09:35 W 5 7.00 Mostly Cloudy BKN007 0 0 0% 30.08 0.0
03 09:15 Calm 7.00 Overcast OVC007 0 0 0% 30.08 0.0
03 08:55 Calm 7.00 Overcast OVC007 0 0 0% 30.09 0.0
03 08:35 Calm 7.00 Overcast OVC007 0 0 0% 30.1 0.0
03 08:15 Calm 7.00 Overcast OVC007 0 0 0% 30.1 0.0
03 07:35 NE 6 10.00 Overcast SCT007 BKN015 OVC060 0 0 0% 30.09 0.0
03 07:15 NE 7 10.00 Mostly Cloudy SCT007 BKN060 0 0 0% 30.08 0.0
03 06:55 NE 6 10.00 Partly Cloudy SCT060 0 0 0% 30.06 0.0
03 06:35 S 5 10.00 Fair CLR 0 0 0% 30.02 0.0
03 05:55 S 6 10.00 Fair CLR 0 0 0% 30.01 0.0
03 05:15 S 5 10.00 Fair CLR 0 0 0% 30.02 0.0
03 02:15 S 3 10.00 Fair CLR 0 0 0% 30.01 0.0
03 01:55 S 5 10.00 Fair CLR 0 0 0% 30.01 0.0
03 01:35 S 5 10.00 Fair CLR 0 0 0% 30.02 0.0
03 00:35 S 5 10.00 Overcast OVC070 0 0 0% 30.04 0.0
02 23:55 S 3 10.00 Mostly Cloudy BKN070 0 0 0% 30.04 0.0
02 22:35 Calm 7.00 Partly Cloudy SCT070 0 0 0% 30.03 0.0
02 22:15 Calm 7.00 Fair CLR 0 0 0% 30.04 0.0
02 21:35 SW 3 10.00 Fair CLR 0 0 0% 30.04 0.0
02 21:15 Calm 10.00 Fair CLR 0 0 0% 30.04 0.0
02 20:55 SW 3 10.00 Mostly Cloudy BKN070 0 0 0% 30.04 0.0
02 20:35 Calm 10.00 Overcast BKN070 OVC090 0 0 0% 30.05 0.0
02 20:15 Calm 10.00 Overcast BKN070 OVC090 0 0 0% 30.05 0.0
02 19:55 Calm 10.00 Mostly Cloudy BKN090 0 0 0% 30.05 0.0 0.44
02 19:35 Calm 10.00 Partly Cloudy SCT070 SCT100 0 0 0% 30.04 0.0
02 19:15 Calm 10.00 Partly Cloudy SCT070 SCT090 SCT110 77 72.9 87% 78 30.03 0.0
02 18:55 Calm 10.00 Mostly Cloudy SCT070 BKN100 78.3 72.9 84% 81 30.04 0.0
02 18:35 Calm 10.00 Partly Cloudy SCT080 76.5 71.6 85% 77 30.05 0.0
02 18:15 Calm 10.00 Partly Cloudy SCT080 SCT090 77 71.6 83% 78 30.04 0.0
02 17:55 Calm 10.00 Mostly Cloudy BKN070 BKN085 0 0 0% 30.03 0.0
02 17:35 NE 3 10.00 Mostly Cloudy BKN070 BKN080 79.9 71.4 75% 83 30.04 0.0
02 17:15 Calm 10.00 Partly Cloudy SCT080 79.9 71.2 75% 83 30.05 0.0
02 16:55 Calm 10.00 Fair CLR 79.7 72 77% 83 30.05 0.0 0.44
02 16:35 E 3 10.00 Fair CLR 0 0 0% 30.05 0.0
02 15:55 E 6 10.00 Partly Cloudy SCT065 SCT070 SCT085 79.3 73.2 82% 83 30.07 0.0 0.04
02 15:35 E 7 10.00 Partly Cloudy SCT065 SCT085 0 0 0% 30.08 0.0 0.04
02 15:15 E 6 10.00 Light Rain SCT017 BKN042 OVC070 0 0 0% 30.07 0.0 0.04
02 14:55 NE 8 1.75 Heavy Rain SCT016 BKN031 OVC055 74.5 72.5 94% 30.06 0.0 0.37
02 14:35 NE 12 G 23 7.00 Heavy Rain BKN050 BKN070 OVC085 0 0 0% 30.05 0.0 0.03
02 14:15 S 3 10.00 Mostly Cloudy SCT050 SCT060 BKN075 93.9 73.4 51% 104 30.03 0.0
02 13:55 S 5 10.00 Overcast BKN060 BKN065 OVC085 95.4 73.4 49% 105 30.03 0.0
02 13:35 SE 3 10.00 Overcast BKN060 OVC075 93.4 72.7 51% 102 30.05 0.0
02 13:15 S 3 10.00 Mostly Cloudy BKN060 0 0 0% 30.06 0.0
02 12:55 Calm 10.00 Partly Cloudy SCT060 0 0 0% 30.07 0.0
02 11:55 S 3 10.00 Fair CLR 91.6 72.1 53% 99 30.07 0.0
02 11:35 S 5 10.00 Fair CLR 90.9 73.2 56% 100 30.07 0.0
02 11:15 SE 5 10.00 Fair CLR 89.8 73.4 59% 98 30.07 0.0
02 10:55 SE 5 10.00 Fair CLR 88.7 73.2 60% 97 30.07 0.0
02 10:35 S 3 10.00 Fair CLR 87.4 72.9 62% 95 30.07 0.0
02 10:15 SW 3 10.00 Fair CLR 85.3 71.1 63% 91 30.07 0.0
02 09:55 S 3 10.00 Fair CLR 83.5 71.2 67% 88 30.08 0.0
02 09:35 SW 5 10.00 Fair CLR 81.9 70.7 69% 86 30.08 0.0
02 09:15 S 6 10.00 Fair CLR 81 70.7 71% 85 30.08 0.0
02 08:55 S 5 10.00 Fair CLR 79.2 70.9 76% 82 30.08 0.0
02 08:35 S 5 10.00 Fair CLR 77.2 70.2 79% 79 30.07 0.0
02 08:15 Calm 10.00 Fair CLR 0 0 0% 30.08 0.0
02 07:55 NE 3 10.00 Fair CLR 74.3 70 86% 30.08 0.0
02 07:35 Calm 10.00 Fair CLR 0 0 0% 30.07 0.0
02 07:15 Calm 10.00 Fair CLR 0 0 0% 30.07 0.0
Date Time (edt) Wind (mph) Vis. (mi.) Weather Sky Cond. Air Dwpt Max. Min. Relative Humidity Wind Chill (°F) Heat Index (°F) altimeter (in) sea level (mb) 1 hr 3 hr 6 hr
6 hour
Temperature (ºF) Pressure Precipitation (in)